createdAt,value
2022-12-15T00:01:21.579Z,3.20
2022-12-15T00:04:06.633Z,3.30
2022-12-15T00:06:52.252Z,3.40
2022-12-15T00:09:37.323Z,3.10
2022-12-15T00:12:22.822Z,3.10
2022-12-15T00:15:08.103Z,2.90
2022-12-15T00:17:53.244Z,3.10
2022-12-15T00:20:38.203Z,3.10
2022-12-15T00:23:30.753Z,3.20
2022-12-15T00:26:16.140Z,3.00
2022-12-15T00:29:01.094Z,3.10
2022-12-15T00:31:46.651Z,2.70
2022-12-15T00:34:31.778Z,2.90
2022-12-15T00:37:16.757Z,2.80
2022-12-15T00:39:43.419Z,3.00
2022-12-15T00:42:10.572Z,3.00
2022-12-15T00:44:37.381Z,3.10
2022-12-15T00:47:04.885Z,2.90
2022-12-15T00:49:50.713Z,3.00
2022-12-15T00:52:36.580Z,3.00
2022-12-15T00:55:23.494Z,2.90
2022-12-15T00:58:08.350Z,3.40
2022-12-15T01:00:53.336Z,3.40
2022-12-15T01:03:41.665Z,3.20
2022-12-15T01:06:30.044Z,3.60
2022-12-15T01:09:15.632Z,3.30
2022-12-15T01:12:01.710Z,3.20
2022-12-15T01:14:47.951Z,3.00
2022-12-15T01:17:33.656Z,2.70
2022-12-15T01:20:18.275Z,3.10
2022-12-15T01:22:48.652Z,3.10
2022-12-15T01:25:16.735Z,3.10
2022-12-15T01:27:44.710Z,3.30
2022-12-15T01:30:13.816Z,3.70
2022-12-15T01:32:45.855Z,3.20
2022-12-15T01:35:13.340Z,3.10
2022-12-15T01:37:40.048Z,3.10
2022-12-15T01:40:27.223Z,2.80
2022-12-15T01:42:53.899Z,3.20
2022-12-15T01:45:29.316Z,3.00
2022-12-15T01:48:05.340Z,3.10
2022-12-15T01:50:33.797Z,3.10
2022-12-15T01:53:00.454Z,3.20
2022-12-15T01:55:28.386Z,3.30
2022-12-15T01:57:57.732Z,3.20
2022-12-15T02:00:24.508Z,3.60
2022-12-15T02:02:51.511Z,3.90
2022-12-15T02:05:18.632Z,4.00
2022-12-15T02:07:45.273Z,3.80
2022-12-15T02:10:12.091Z,4.00
2022-12-15T02:13:07.424Z,3.60
2022-12-15T02:15:41.246Z,3.10
2022-12-15T02:18:25.520Z,3.10
2022-12-15T02:21:17.835Z,3.60
2022-12-15T02:24:10.560Z,3.20
2022-12-15T02:27:01.849Z,3.40
2022-12-15T02:29:40.614Z,3.50
2022-12-15T02:32:21.918Z,3.70
2022-12-15T02:34:54.611Z,3.70
2022-12-15T02:37:35.782Z,3.70
2022-12-15T02:40:04.201Z,3.10
2022-12-15T02:42:32.204Z,3.50
2022-12-15T03:00:04.936Z,3.00
2022-12-15T03:03:18.310Z,2.80
2022-12-15T03:06:18.445Z,3.00
2022-12-15T03:08:45.088Z,2.90
2022-12-15T03:11:11.740Z,2.70
2022-12-15T03:13:38.397Z,3.20
2022-12-15T03:16:05.331Z,3.10
2022-12-15T03:18:32.018Z,2.50
2022-12-15T03:20:58.674Z,2.40
2022-12-15T03:23:25.381Z,2.50
2022-12-15T03:25:52.033Z,2.80
2022-12-15T03:28:18.734Z,3.00
2022-12-15T03:30:45.400Z,2.90
2022-12-15T03:33:17.912Z,2.90
2022-12-15T03:35:44.646Z,3.20
2022-12-15T03:38:11.299Z,3.10
2022-12-15T03:40:37.970Z,3.00
2022-12-15T03:43:04.620Z,3.00
2022-12-15T03:45:31.327Z,3.00
2022-12-15T03:47:58.126Z,2.90
2022-12-15T03:50:27.766Z,3.00
2022-12-15T03:53:00.254Z,3.50
2022-12-15T03:55:28.777Z,3.60
2022-12-15T03:57:55.758Z,3.40
2022-12-15T04:01:00.340Z,3.70
2022-12-15T04:03:42.304Z,3.80
2022-12-15T04:06:38.542Z,3.80
2022-12-15T04:09:38.498Z,3.70
2022-12-15T04:12:40.237Z,3.10
2022-12-15T04:18:15.945Z,3.20
2022-12-15T04:20:51.017Z,3.10
2022-12-15T04:23:39.756Z,3.10
2022-12-15T04:26:27.863Z,2.90
2022-12-15T04:29:12.832Z,3.30
2022-12-15T04:31:57.969Z,3.50
2022-12-15T04:34:43.015Z,3.10
2022-12-15T04:37:31.380Z,3.50
2022-12-15T04:40:18.214Z,3.20
2022-12-15T04:43:05.108Z,3.20
2022-12-15T04:45:50.784Z,3.30
2022-12-15T04:48:35.689Z,3.10
2022-12-15T04:51:22.745Z,3.30
2022-12-15T04:54:09.212Z,3.50
2022-12-15T04:56:54.092Z,3.40
2022-12-15T04:59:39.085Z,3.60
2022-12-15T05:02:24.209Z,3.70
2022-12-15T05:05:09.557Z,3.80
2022-12-15T05:07:55.420Z,3.80
2022-12-15T05:10:40.355Z,3.60
2022-12-15T05:13:26.877Z,3.50
2022-12-15T05:16:12.308Z,3.00
2022-12-15T05:18:57.528Z,2.80
2022-12-15T05:21:42.880Z,2.70
2022-12-15T05:24:27.819Z,2.60
2022-12-15T05:27:12.791Z,2.90
2022-12-15T05:29:57.658Z,3.10
2022-12-15T05:32:24.315Z,3.30
2022-12-15T05:34:50.986Z,3.10
2022-12-15T05:37:17.635Z,3.30
2022-12-15T05:39:44.313Z,3.60
2022-12-15T05:42:11.022Z,3.70
2022-12-15T05:44:37.754Z,3.50
2022-12-15T05:47:04.814Z,2.80
2022-12-15T05:49:31.920Z,2.70
2022-12-15T05:51:58.735Z,2.50
2022-12-15T05:54:25.522Z,3.00
2022-12-15T05:56:52.203Z,3.00
2022-12-15T05:59:19.441Z,2.90
2022-12-15T06:01:46.424Z,2.70
2022-12-15T06:04:13.666Z,2.40
2022-12-15T06:06:41.010Z,2.80
2022-12-15T06:09:07.884Z,2.90
2022-12-15T06:11:34.719Z,2.80
2022-12-15T06:14:01.421Z,2.70
2022-12-15T06:16:28.231Z,2.60
2022-12-15T06:18:57.784Z,2.90
2022-12-15T06:21:27.302Z,2.60
2022-12-15T06:23:55.780Z,2.80
2022-12-15T06:26:30.347Z,2.90
2022-12-15T06:28:58.671Z,2.70
2022-12-15T06:31:26.060Z,2.90
2022-12-15T06:33:59.325Z,2.90
2022-12-15T06:36:28.581Z,2.80
2022-12-15T06:38:58.843Z,2.90
2022-12-15T06:41:25.518Z,2.80
2022-12-15T06:43:55.687Z,2.50
2022-12-15T06:46:23.233Z,2.60
2022-12-15T06:48:49.992Z,2.80
2022-12-15T06:51:17.701Z,3.10
2022-12-15T06:53:48.684Z,3.10
2022-12-15T06:56:32.445Z,3.10
2022-12-15T06:59:00.559Z,2.90
2022-12-15T07:01:27.851Z,3.10
2022-12-15T07:03:55.480Z,2.90
2022-12-15T07:06:22.871Z,3.10
2022-12-15T07:08:54.343Z,2.40
2022-12-15T07:11:21.892Z,2.10
2022-12-15T07:13:52.734Z,2.30
2022-12-15T07:16:20.533Z,2.60
2022-12-15T07:18:47.507Z,2.30
2022-12-15T07:21:14.290Z,2.20
2022-12-15T07:23:56.372Z,2.00
2022-12-15T07:26:24.227Z,2.30
2022-12-15T07:28:51.212Z,2.40
2022-12-15T07:31:18.196Z,2.20
2022-12-15T07:33:44.997Z,2.30
2022-12-15T07:36:12.051Z,2.30
2022-12-15T07:38:38.734Z,2.30
2022-12-15T07:41:07.552Z,2.70
2022-12-15T07:43:35.256Z,2.60
2022-12-15T07:46:02.808Z,2.90
2022-12-15T07:48:29.636Z,3.00
2022-12-15T07:51:07.462Z,3.00
2022-12-15T07:53:35.962Z,2.80
2022-12-15T07:56:09.291Z,2.70
2022-12-15T07:58:37.658Z,2.60
2022-12-15T08:01:06.797Z,2.90
2022-12-15T08:03:34.789Z,3.20
2022-12-15T08:06:10.059Z,3.20
2022-12-15T08:08:37.094Z,2.80
2022-12-15T08:11:09.072Z,2.60
2022-12-15T08:16:23.261Z,2.40
2022-12-15T08:18:50.017Z,2.50
2022-12-15T08:21:17.269Z,2.80
2022-12-15T08:23:43.925Z,2.70
2022-12-15T08:26:14.384Z,3.10
2022-12-15T08:28:42.079Z,3.10
2022-12-15T08:31:20.372Z,3.00
2022-12-15T08:33:47.838Z,3.20
2022-12-15T08:36:15.800Z,3.00
2022-12-15T08:38:43.877Z,3.10
2022-12-15T08:41:16.444Z,3.30
2022-12-15T08:43:48.645Z,3.10
2022-12-15T08:46:17.188Z,2.60
2022-12-15T08:48:44.201Z,2.80
2022-12-15T08:51:10.937Z,3.20
2022-12-15T08:53:38.611Z,3.20
2022-12-15T08:56:06.811Z,3.30
2022-12-15T08:58:33.810Z,3.40
2022-12-15T09:01:09.582Z,3.50
2022-12-15T09:03:36.724Z,3.40
2022-12-15T09:06:10.125Z,2.90
2022-12-15T09:08:36.851Z,1.80
2022-12-15T09:11:05.580Z,1.80
2022-12-15T09:13:32.682Z,2.20
2022-12-15T09:16:18.823Z,2.10
2022-12-15T09:18:53.871Z,2.40
2022-12-15T09:21:26.141Z,2.20
2022-12-15T09:24:00.025Z,2.40
2022-12-15T09:26:27.706Z,2.50
2022-12-15T09:28:55.270Z,2.80
2022-12-15T09:31:30.187Z,3.00
2022-12-15T09:33:58.637Z,3.20
2022-12-15T09:36:26.370Z,3.20
2022-12-15T09:38:53.224Z,3.30
2022-12-15T09:41:25.305Z,3.20
2022-12-15T09:44:17.875Z,3.10
2022-12-15T09:47:33.551Z,2.40
2022-12-15T09:50:05.608Z,2.00
2022-12-15T09:53:04.121Z,2.10
2022-12-15T09:56:03.082Z,2.40
2022-12-15T09:59:04.930Z,2.80
2022-12-15T10:06:06.225Z,2.40
2022-12-15T10:09:20.619Z,1.70
2022-12-15T10:12:22.501Z,1.90
2022-12-15T10:15:28.534Z,2.70
2022-12-15T10:18:06.417Z,2.90
2022-12-15T10:20:33.177Z,2.00
2022-12-15T10:23:05.989Z,1.80
2022-12-15T10:25:32.908Z,1.90
2022-12-15T10:28:05.523Z,1.70
2022-12-15T10:30:32.351Z,1.80
2022-12-15T10:33:11.074Z,2.30
2022-12-15T10:35:39.651Z,2.70
2022-12-15T10:38:23.148Z,2.80
2022-12-15T10:41:01.332Z,2.90
2022-12-15T10:43:37.616Z,2.70
2022-12-15T10:46:19.665Z,2.70
2022-12-15T10:48:49.174Z,2.60
2022-12-15T10:51:26.605Z,2.60
2022-12-15T10:54:09.550Z,2.90
2022-12-15T10:56:54.509Z,2.80
2022-12-15T10:59:24.813Z,3.00
2022-12-15T11:01:51.776Z,2.90
2022-12-15T11:04:54.906Z,2.90
2022-12-15T11:07:21.677Z,2.70
2022-12-15T11:09:49.071Z,2.80
2022-12-15T11:12:37.580Z,3.10
2022-12-15T11:15:24.199Z,2.80
2022-12-15T11:18:12.768Z,3.00
2022-12-15T11:20:48.649Z,2.60
2022-12-15T11:23:58.903Z,2.70
2022-12-15T11:27:20.019Z,3.10
2022-12-15T11:30:12.334Z,3.20
2022-12-15T11:32:42.890Z,3.20
2022-12-15T11:35:14.423Z,3.00
2022-12-15T11:37:50.991Z,3.50
2022-12-15T11:40:23.755Z,3.10
2022-12-15T11:42:53.343Z,3.00
2022-12-15T11:45:44.496Z,2.90
2022-12-15T11:48:17.327Z,3.30
2022-12-15T11:50:47.148Z,3.10
2022-12-15T11:53:23.856Z,3.40
2022-12-15T11:56:06.253Z,3.10
2022-12-15T11:59:09.908Z,3.20
2022-12-15T12:01:51.665Z,2.30
2022-12-15T12:04:24.139Z,2.50
2022-12-15T12:06:54.355Z,2.80
2022-12-15T12:09:29.742Z,2.80
2022-12-15T12:11:59.361Z,3.30
2022-12-15T12:14:36.441Z,3.20
2022-12-15T12:17:19.777Z,2.90
2022-12-15T12:19:52.560Z,3.30
2022-12-15T12:22:32.090Z,3.20
2022-12-15T12:25:02.471Z,3.10
2022-12-15T12:27:36.419Z,3.30
2022-12-15T12:30:13.913Z,3.40
2022-12-15T12:32:59.359Z,3.40
2022-12-15T12:35:51.651Z,3.40
2022-12-15T12:38:24.481Z,3.60
2022-12-15T12:41:02.599Z,3.80
2022-12-15T12:43:35.843Z,3.40
2022-12-15T12:46:21.143Z,3.30
2022-12-15T12:48:59.864Z,3.20
2022-12-15T12:51:34.681Z,2.90
2022-12-15T12:54:01.835Z,2.90
2022-12-15T12:56:45.601Z,3.40
2022-12-15T12:59:29.062Z,3.70
2022-12-15T13:02:22.066Z,3.60
2022-12-15T13:05:22.701Z,3.50
2022-12-15T13:08:38.884Z,3.40
2022-12-15T13:11:45.804Z,3.70
2022-12-15T13:15:23.500Z,3.80
2022-12-15T13:18:06.482Z,3.10
2022-12-15T13:20:41.398Z,3.50
2022-12-15T13:23:23.151Z,3.40
2022-12-15T13:25:55.970Z,3.50
2022-12-15T13:28:44.317Z,3.60
2022-12-15T13:31:21.578Z,3.50
2022-12-15T13:33:51.510Z,3.40
2022-12-15T13:36:36.492Z,3.50
2022-12-15T13:39:12.473Z,3.20
2022-12-15T13:44:45.557Z,2.00
2022-12-15T13:47:17.056Z,1.80
2022-12-15T13:49:53.095Z,2.20
2022-12-15T13:52:44.311Z,2.60
2022-12-15T13:55:24.107Z,2.60
2022-12-15T13:58:00.663Z,2.80
2022-12-15T14:00:27.369Z,3.00
2022-12-15T14:03:12.530Z,3.30
2022-12-15T14:05:42.904Z,3.30
2022-12-15T14:08:14.063Z,3.30
2022-12-15T14:10:41.997Z,3.20
2022-12-15T14:16:19.885Z,3.20
2022-12-15T14:19:08.542Z,3.00
2022-12-15T14:21:35.206Z,3.20
2022-12-15T14:24:37.083Z,3.20
2022-12-15T14:26:48.591Z,3.40
2022-12-15T14:29:17.372Z,3.40
2022-12-15T14:31:48.389Z,3.60
2022-12-15T14:34:27.306Z,3.50
2022-12-15T14:36:56.499Z,3.60
2022-12-15T14:39:28.139Z,3.60
2022-12-15T14:41:55.716Z,3.40
2022-12-15T14:44:49.734Z,3.10
2022-12-15T14:47:28.364Z,3.50
2022-12-15T14:49:57.271Z,3.60
2022-12-15T14:52:33.912Z,3.40
2022-12-15T14:55:28.887Z,3.40
2022-12-15T14:57:55.708Z,2.90
2022-12-15T15:00:28.288Z,3.30
2022-12-15T15:03:14.222Z,2.80
2022-12-15T15:03:20.124Z,2.90
2022-12-15T15:05:52.119Z,3.20
2022-12-15T15:08:24.811Z,3.20
2022-12-15T15:10:51.945Z,3.50
2022-12-15T15:13:21.440Z,3.50
2022-12-15T15:15:55.528Z,3.40
2022-12-15T15:18:25.301Z,3.00
2022-12-15T15:20:57.163Z,2.70
2022-12-15T15:23:23.862Z,3.10
2022-12-15T15:26:17.467Z,3.50
2022-12-15T15:28:44.882Z,3.60
2022-12-15T15:31:41.481Z,3.60
2022-12-15T15:34:08.867Z,3.70
2022-12-15T15:36:38.062Z,3.50
2022-12-15T15:39:12.258Z,3.60
2022-12-15T15:41:39.079Z,3.70
2022-12-15T15:44:12.069Z,3.70
2022-12-15T15:46:52.061Z,3.50
2022-12-15T15:49:20.748Z,3.40
2022-12-15T15:51:47.722Z,3.40
2022-12-15T15:54:17.624Z,3.20
2022-12-15T15:56:44.290Z,2.60
2022-12-15T15:59:13.108Z,2.20
2022-12-15T16:01:40.110Z,2.10
2022-12-15T16:04:06.923Z,2.10
2022-12-15T16:06:33.971Z,1.90
2022-12-15T16:09:00.853Z,1.60
2022-12-15T16:11:30.024Z,1.50
2022-12-15T16:13:56.825Z,1.60
2022-12-15T16:16:25.237Z,1.50
2022-12-15T16:18:51.972Z,1.60
2022-12-15T16:21:19.860Z,1.80
2022-12-15T16:23:48.207Z,1.70
2022-12-15T16:26:17.652Z,1.70
2022-12-15T16:28:44.322Z,1.80
2022-12-15T16:31:15.836Z,2.00
2022-12-15T16:33:42.532Z,2.20
2022-12-15T16:36:13.801Z,2.10
2022-12-15T16:38:40.855Z,2.30
2022-12-15T16:41:10.634Z,2.80
2022-12-15T16:43:41.548Z,3.00
2022-12-15T16:46:13.953Z,3.10
2022-12-15T16:48:41.194Z,3.30
2022-12-15T16:51:09.586Z,3.30
2022-12-15T16:53:38.027Z,3.30
2022-12-15T16:56:07.521Z,3.40
2022-12-15T16:58:35.795Z,3.40
2022-12-15T17:01:03.832Z,3.50
2022-12-15T17:03:30.822Z,3.60
2022-12-15T17:06:01.167Z,3.00
2022-12-15T17:08:41.798Z,2.70
2022-12-15T17:11:20.343Z,2.90
2022-12-15T17:13:51.031Z,3.10
2022-12-15T17:16:18.796Z,3.40
2022-12-15T17:18:45.525Z,3.50
2022-12-15T17:21:16.880Z,3.60
2022-12-15T17:23:45.873Z,3.30
2022-12-15T17:26:27.548Z,3.40
2022-12-15T17:28:56.657Z,3.00
2022-12-15T17:31:27.791Z,2.90
2022-12-15T17:33:59.751Z,2.60
2022-12-15T17:36:28.050Z,2.50
2022-12-15T17:38:59.404Z,1.80
2022-12-15T17:41:58.246Z,1.80
2022-12-15T17:44:32.849Z,2.00
2022-12-15T17:47:02.075Z,1.90
2022-12-15T17:49:35.025Z,1.90
2022-12-15T17:52:04.334Z,1.90
2022-12-15T17:54:30.982Z,2.10
2022-12-15T17:56:57.661Z,2.00
2022-12-15T17:59:24.318Z,2.00
2022-12-15T18:01:52.047Z,1.90
2022-12-15T18:04:18.855Z,2.40
2022-12-15T18:06:45.568Z,2.40
2022-12-15T18:09:16.664Z,2.50
2022-12-15T18:11:45.175Z,2.20
2022-12-15T18:14:17.211Z,2.00
2022-12-15T18:16:44.398Z,1.90
2022-12-15T18:19:11.687Z,2.00
2022-12-15T18:21:38.358Z,2.10
2022-12-15T18:24:17.002Z,1.90
2022-12-15T18:26:43.901Z,1.70
2022-12-15T18:29:17.656Z,1.50
2022-12-15T18:31:48.671Z,1.60
2022-12-15T18:34:17.951Z,1.80
2022-12-15T18:36:44.935Z,1.90
2022-12-15T18:39:19.861Z,2.30
2022-12-15T18:41:46.931Z,2.30
2022-12-15T18:44:25.349Z,1.80
2022-12-15T18:46:52.690Z,1.50
2022-12-15T18:49:22.917Z,1.70
2022-12-15T18:51:49.730Z,1.90
2022-12-15T18:54:18.904Z,1.60
2022-12-15T18:56:45.679Z,1.70
2022-12-15T18:59:17.241Z,1.40
2022-12-15T19:01:46.531Z,1.30
2022-12-15T19:04:13.695Z,1.50
2022-12-15T19:06:40.944Z,1.30
2022-12-15T19:09:19.335Z,1.50
2022-12-15T19:12:06.101Z,1.70
2022-12-15T19:14:42.648Z,1.80
2022-12-15T19:17:46.223Z,1.60
2022-12-15T19:20:38.509Z,1.60
2022-12-15T19:23:06.003Z,1.50
2022-12-15T19:25:33.346Z,1.90
2022-12-15T19:28:00.801Z,1.80
2022-12-15T19:30:29.948Z,1.40
2022-12-15T19:32:57.009Z,1.40
2022-12-15T19:35:24.768Z,1.50
2022-12-15T19:37:54.920Z,2.10
2022-12-15T19:40:26.460Z,2.30
2022-12-15T19:42:55.507Z,2.60
2022-12-15T19:45:24.905Z,2.50
2022-12-15T19:47:51.612Z,2.60
2022-12-15T19:50:21.610Z,2.60
2022-12-15T19:52:57.355Z,2.90
2022-12-15T19:55:33.564Z,2.20
2022-12-15T19:58:01.532Z,2.40
2022-12-15T20:00:28.189Z,2.20
2022-12-15T20:02:55.385Z,2.20
2022-12-15T20:05:24.747Z,2.40
2022-12-15T20:07:52.907Z,1.60
2022-12-15T20:10:27.516Z,2.10
2022-12-15T20:12:54.500Z,2.30
2022-12-15T20:15:23.524Z,2.30
2022-12-15T20:17:57.035Z,1.90
2022-12-15T20:20:26.740Z,1.90
2022-12-15T20:22:55.647Z,2.20
2022-12-15T20:25:28.248Z,1.80
2022-12-15T20:27:55.339Z,1.70
2022-12-15T20:30:25.109Z,1.90
2022-12-15T20:32:52.201Z,2.40
2022-12-15T20:35:20.693Z,2.20
2022-12-15T20:37:48.004Z,2.20
2022-12-15T20:40:29.400Z,2.20
2022-12-15T20:42:56.328Z,2.00
2022-12-15T20:45:25.871Z,1.90
2022-12-15T20:47:54.808Z,2.10
2022-12-15T20:50:43.062Z,2.10
2022-12-15T20:53:19.498Z,2.40
2022-12-15T20:55:47.470Z,2.00
2022-12-15T20:58:14.914Z,2.00
2022-12-15T21:00:41.869Z,2.00
2022-12-15T21:03:21.810Z,2.00
2022-12-15T21:05:50.425Z,2.00
2022-12-15T21:08:35.735Z,2.00
2022-12-15T21:11:11.066Z,2.00
2022-12-15T21:13:37.726Z,2.20
2022-12-15T21:16:04.574Z,1.90
2022-12-15T21:21:22.681Z,2.30
2022-12-15T21:23:49.373Z,2.50
2022-12-15T21:26:20.141Z,2.10
2022-12-15T21:28:48.645Z,1.90
2022-12-15T21:31:16.202Z,2.40
2022-12-15T21:33:43.049Z,1.90
2022-12-15T21:36:13.572Z,2.00
2022-12-15T21:38:41.447Z,1.70
2022-12-15T21:41:12.906Z,2.00
2022-12-15T21:43:39.576Z,2.30
2022-12-15T21:46:15.053Z,2.30
2022-12-15T21:49:00.888Z,2.30
2022-12-15T21:51:30.392Z,2.20
2022-12-15T21:53:57.244Z,2.50
2022-12-15T21:56:23.923Z,2.70
2022-12-15T21:58:52.593Z,2.80
2022-12-15T22:01:29.318Z,2.90
2022-12-15T22:03:58.050Z,3.00
2022-12-15T22:06:27.569Z,2.50
2022-12-15T22:08:56.369Z,2.60
2022-12-15T22:11:25.649Z,2.50
2022-12-15T22:13:55.040Z,2.30
2022-12-15T22:16:22.694Z,1.30
2022-12-15T22:18:53.524Z,1.10
2022-12-15T22:21:22.613Z,0.80
2022-12-15T22:23:50.742Z,0.90
2022-12-15T22:26:21.063Z,1.10
2022-12-15T22:28:48.155Z,1.30
2022-12-15T22:31:15.426Z,1.80
2022-12-15T22:33:42.189Z,1.10
2022-12-15T22:36:09.224Z,0.80
2022-12-15T22:38:36.249Z,0.90
2022-12-15T22:41:03.316Z,1.80
2022-12-15T22:43:39.869Z,1.90
2022-12-15T22:46:09.565Z,1.60
2022-12-15T22:48:39.413Z,1.40
2022-12-15T22:51:06.439Z,1.70
2022-12-15T22:53:34.919Z,1.10
2022-12-15T22:56:05.989Z,1.80
2022-12-15T22:58:37.050Z,1.50
2022-12-15T23:01:04.523Z,1.50
2022-12-15T23:03:31.438Z,1.30
2022-12-15T23:06:01.716Z,1.10
2022-12-15T23:08:29.497Z,1.20
2022-12-15T23:11:15.087Z,2.00
2022-12-15T23:13:41.804Z,1.60
2022-12-15T23:16:21.390Z,1.70
2022-12-15T23:18:49.723Z,2.10
2022-12-15T23:21:19.100Z,2.10
2022-12-15T23:23:45.887Z,1.50
2022-12-15T23:26:12.853Z,2.00
2022-12-15T23:28:39.805Z,2.00
2022-12-15T23:31:06.911Z,1.80
2022-12-15T23:33:34.141Z,1.70
2022-12-15T23:36:01.813Z,1.80
2022-12-15T23:38:28.790Z,2.00
2022-12-15T23:40:56.927Z,1.90
2022-12-15T23:43:25.208Z,2.00
2022-12-15T23:46:03.286Z,2.10
2022-12-15T23:48:31.920Z,1.70
2022-12-15T23:51:07.262Z,1.80
2022-12-15T23:53:35.773Z,1.60
2022-12-15T23:56:16.845Z,1.50
2022-12-15T23:58:44.923Z,1.70
